Wetterdaten: Woche 22.05.23 - 28.05.23 (KW21)
Datum Zeit Temp. A. Feuchte A. Luftdruck Regen Wind Richtung Taupunkt Windchill
22.05.2023 00:00 17,6 C 69 % 1020 hPa 0,0 l/m 0,0 km/h (0 Bft) SO 11,9 C 17,6 C
22.05.2023 01:00 16,9 C 71 % 1020 hPa 0,0 l/m 0,4 km/h (0 Bft) O-SO 11,6 C 16,9 C
22.05.2023 02:00 16,1 C 73 % 1020 hPa 0,0 l/m 0,0 km/h (0 Bft) O-SO 11,3 C 16,1 C
22.05.2023 03:00 16,0 C 74 % 1020 hPa 0,0 l/m 0,0 km/h (0 Bft) O 11,4 C 16,0 C
22.05.2023 04:00 16,1 C 74 % 1020 hPa 0,0 l/m 0,0 km/h (0 Bft) O 11,4 C 16,1 C
22.05.2023 05:00 15,6 C 75 % 1020 hPa 0,0 l/m 0,0 km/h (0 Bft) O 11,1 C 15,6 C
22.05.2023 06:00 15,4 C 76 % 1020 hPa 0,0 l/m 0,0 km/h (0 Bft) O 11,1 C 15,4 C
22.05.2023 07:00 16,0 C 77 % 1020 hPa 0,0 l/m 0,0 km/h (0 Bft) O 12,0 C 16,0 C
22.05.2023 08:00 17,7 C 76 % 1020 hPa 0,0 l/m 0,0 km/h (0 Bft) O-NO 13,5 C 17,7 C
22.05.2023 09:00 19,4 C 74 % 1020 hPa 0,0 l/m 0,0 km/h (0 Bft) O-SO 14,6 C 19,4 C
22.05.2023 10:00 21,9 C 68 % 1020 hPa 0,0 l/m 0,0 km/h (0 Bft) N 15,8 C 21,9 C
22.05.2023 11:00 23,9 C 63 % 1019 hPa 0,0 l/m 1,5 km/h (1 Bft) SO 16,3 C 23,8 C
22.05.2023 12:00 27,2 C 55 % 1019 hPa 0,0 l/m 0,3 km/h (0 Bft) O-SO 17,3 C 27,2 C
22.05.2023 13:00 27,8 C 52 % 1018 hPa 0,0 l/m 0,5 km/h (0 Bft) N-NO 16,8 C 27,8 C
22.05.2023 14:00 28,1 C 50 % 1018 hPa 0,0 l/m 2,2 km/h (1 Bft) O-SO 16,6 C 28,1 C
22.05.2023 15:00 27,2 C 49 % 1018 hPa 0,0 l/m 2,0 km/h (1 Bft) SO 15,7 C 27,1 C
22.05.2023 16:00 28,1 C 47 % 1018 hPa 0,0 l/m 0,2 km/h (0 Bft) N-NO 15,6 C 28,1 C
22.05.2023 17:00 26,3 C 48 % 1017 hPa 0,0 l/m 0,0 km/h (0 Bft) O-SO 14,5 C 26,3 C
22.05.2023 18:00 24,4 C 52 % 1017 hPa 0,0 l/m 0,1 km/h (0 Bft) N-NO 14,0 C 24,4 C
22.05.2023 19:00 20,5 C 67 % 1017 hPa 0,0 l/m 0,0 km/h (0 Bft) N 14,1 C 20,5 C
22.05.2023 20:00 19,9 C 72 % 1017 hPa 1,6 l/m 0,0 km/h (0 Bft) W-SW 14,6 C 19,9 C
22.05.2023 21:00 17,2 C 82 % 1017 hPa 1,0 l/m 2,5 km/h (1 Bft) O-SO 14,0 C 17,0 C
22.05.2023 22:00 16,5 C 84 % 1017 hPa 0,0 l/m 0,0 km/h (0 Bft) O 13,8 C 16,5 C
22.05.2023 23:00 16,0 C 86 % 1018 hPa 0,0 l/m 0,0 km/h (0 Bft) N-NW 13,7 C 16,0 C
23.05.2023 00:00 15,9 C 86 % 1018 hPa 0,0 l/m 0,0 km/h (0 Bft) O-NO 13,6 C 15,9 C
23.05.2023 01:00 15,8 C 87 % 1018 hPa 0,0 l/m 0,0 km/h (0 Bft) W-NW 13,6 C 15,8 C
23.05.2023 02:00 15,2 C 87 % 1018 hPa 0,0 l/m 0,0 km/h (0 Bft) W-NW 13,0 C 15,2 C
23.05.2023 03:00 14,9 C 88 % 1018 hPa 0,0 l/m 0,0 km/h (0 Bft) W-NW 12,9 C 14,9 C
23.05.2023 04:00 14,5 C 88 % 1018 hPa 0,0 l/m 0,0 km/h (0 Bft) W-NW 12,5 C 14,5 C
23.05.2023 05:00 13,9 C 89 % 1018 hPa 0,0 l/m 0,0 km/h (0 Bft) W-NW 12,1 C 13,9 C
23.05.2023 06:00 14,0 C 90 % 1018 hPa 0,0 l/m 0,0 km/h (0 Bft) NW 12,4 C 14,0 C
23.05.2023 07:00 14,7 C 91 % 1019 hPa 0,0 l/m 0,0 km/h (0 Bft) W-NW 13,2 C 14,7 C
23.05.2023 08:00 14,9 C 89 % 1019 hPa 0,0 l/m 0,0 km/h (0 Bft) NW 13,2 C 14,9 C
23.05.2023 09:00 14,9 C 87 % 1019 hPa 0,0 l/m 0,0 km/h (0 Bft) W 12,7 C 14,9 C
23.05.2023 10:00 15,3 C 84 % 1020 hPa 0,0 l/m 0,0 km/h (0 Bft) W-NW 12,5 C 15,3 C
23.05.2023 11:00 16,3 C 79 % 1020 hPa 0,0 l/m 0,0 km/h (0 Bft) SW 12,7 C 16,3 C
23.05.2023 12:00 15,7 C 80 % 1020 hPa 0,0 l/m 0,0 km/h (0 Bft) W-NW 12,2 C 15,7 C
23.05.2023 13:00 14,8 C 83 % 1020 hPa 0,0 l/m 0,0 km/h (0 Bft) W-NW 12,0 C 14,8 C
23.05.2023 14:00 14,4 C 84 % 1021 hPa 0,0 l/m 1,7 km/h (1 Bft) NW 11,8 C 14,0 C
23.05.2023 15:00 14,3 C 83 % 1021 hPa 0,0 l/m 0,9 km/h (0 Bft) W-NW 11,4 C 14,3 C
23.05.2023 16:00 13,5 C 83 % 1021 hPa 0,0 l/m 1,6 km/h (1 Bft) NW 10,6 C 13,2 C
23.05.2023 17:00 12,7 C 85 % 1022 hPa 0,0 l/m 0,0 km/h (0 Bft) NW 10,2 C 12,7 C
23.05.2023 18:00 12,1 C 84 % 1022 hPa 0,0 l/m 1,1 km/h (1 Bft) W-NW 9,5 C 12,1 C
23.05.2023 19:00 11,4 C 85 % 1023 hPa 0,0 l/m 0,7 km/h (0 Bft) NW 8,9 C 11,4 C
23.05.2023 20:00 11,0 C 83 % 1023 hPa 0,0 l/m 0,6 km/h (0 Bft) W-NW 8,3 C 11,0 C
23.05.2023 21:00 10,8 C 83 % 1024 hPa 0,0 l/m 0,0 km/h (0 Bft) W-NW 8,0 C 10,8 C
23.05.2023 22:00 10,5 C 81 % 1024 hPa 0,0 l/m 0,0 km/h (0 Bft) NW 7,3 C 10,5 C
23.05.2023 23:00 9,8 C 80 % 1025 hPa 0,0 l/m 0,0 km/h (0 Bft) NW 6,5 C 9,8 C
24.05.2023 00:00 9,0 C 80 % 1025 hPa 0,0 l/m 0,0 km/h (0 Bft) N 5,7 C 9,0 C
24.05.2023 01:00 8,8 C 81 % 1025 hPa 0,0 l/m 0,0 km/h (0 Bft) N 5,6 C 8,8 C
24.05.2023 02:00 8,1 C 80 % 1025 hPa 0,0 l/m 0,0 km/h (0 Bft) N 4,8 C 8,1 C
24.05.2023 03:00 7,6 C 78 % 1025 hPa 0,0 l/m 2,5 km/h (1 Bft) N 4,0 C 7,3 C
24.05.2023 04:00 7,3 C 77 % 1025 hPa 0,0 l/m 8,4 km/h (2 Bft) N 3,5 C 5,0 C
24.05.2023 05:00 6,8 C 76 % 1025 hPa 0,0 l/m 4,3 km/h (1 Bft) N 3,0 C 6,4 C
24.05.2023 06:00 6,6 C 78 % 1025 hPa 0,0 l/m 0,0 km/h (0 Bft) N 3,0 C 6,6 C
24.05.2023 07:00 6,9 C 79 % 1026 hPa 0,0 l/m 0,0 km/h (0 Bft) N-NO 3,5 C 6,9 C
24.05.2023 08:00 8,3 C 77 % 1026 hPa 0,0 l/m 0,0 km/h (0 Bft) N 4,4 C 8,3 C
24.05.2023 09:00 9,7 C 72 % 1026 hPa 0,0 l/m 0,0 km/h (0 Bft) N 4,9 C 9,7 C
24.05.2023 10:00 10,8 C 67 % 1026 hPa 0,0 l/m 1,4 km/h (1 Bft) W-NW 5,0 C 10,8 C
24.05.2023 11:00 11,7 C 64 % 1026 hPa 0,0 l/m 0,0 km/h (0 Bft) NW 5,1 C 11,7 C
24.05.2023 12:00 13,0 C 62 % 1027 hPa 0,0 l/m 0,0 km/h (0 Bft) W-NW 5,9 C 13,0 C
24.05.2023 13:00 13,6 C 60 % 1027 hPa 0,0 l/m 0,0 km/h (0 Bft) N 5,8 C 13,6 C
24.05.2023 14:00 14,1 C 57 % 1026 hPa 0,0 l/m 1,0 km/h (0 Bft) N 5,7 C 14,1 C
24.05.2023 15:00 14,3 C 57 % 1026 hPa 0,0 l/m 0,0 km/h (0 Bft) N 5,8 C 14,3 C
24.05.2023 16:00 15,4 C 54 % 1026 hPa 0,0 l/m 1,6 km/h (1 Bft) N 6,2 C 15,1 C
24.05.2023 17:00 15,4 C 54 % 1026 hPa 0,0 l/m 0,0 km/h (0 Bft) N 6,1 C 15,4 C
24.05.2023 18:00 14,2 C 57 % 1026 hPa 0,0 l/m 1,2 km/h (1 Bft) N 5,7 C 14,2 C
24.05.2023 19:00 13,0 C 59 % 1026 hPa 0,0 l/m 0,5 km/h (0 Bft) N 5,2 C 13,0 C
24.05.2023 20:00 12,0 C 62 % 1027 hPa 0,0 l/m 0,0 km/h (0 Bft) N 4,9 C 12,0 C
24.05.2023 21:00 10,1 C 65 % 1027 hPa 0,0 l/m 0,0 km/h (0 Bft) N 3,8 C 10,1 C
24.05.2023 22:00 8,3 C 69 % 1028 hPa 0,0 l/m 0,0 km/h (0 Bft) N 3,0 C 8,3 C
24.05.2023 23:00 7,0 C 72 % 1028 hPa 0,0 l/m 0,0 km/h (0 Bft) N-NO 2,4 C 7,0 C
25.05.2023 00:00 6,4 C 76 % 1028 hPa 0,0 l/m 0,0 km/h (0 Bft) N-NO 2,5 C 6,4 C
25.05.2023 01:00 5,9 C 78 % 1028 hPa 0,0 l/m 0,0 km/h (0 Bft) N-NO 2,4 C 5,9 C
25.05.2023 02:00 5,3 C 80 % 1029 hPa 0,0 l/m 0,0 km/h (0 Bft) N-NO 2,1 C 5,3 C
25.05.2023 03:00 4,9 C 81 % 1029 hPa 0,0 l/m 0,0 km/h (0 Bft) N-NO 1,9 C 4,9 C
25.05.2023 04:00 4,2 C 82 % 1029 hPa 0,0 l/m 0,0 km/h (0 Bft) N-NO 1,4 C 4,2 C
25.05.2023 05:00 3,8 C 83 % 1029 hPa 0,0 l/m 0,0 km/h (0 Bft) N-NO 1,2 C 3,8 C
25.05.2023 06:00 4,2 C 84 % 1029 hPa 0,0 l/m 0,0 km/h (0 Bft) NO 1,8 C 4,2 C
25.05.2023 07:00 5,7 C 86 % 1030 hPa 0,0 l/m 0,0 km/h (0 Bft) NO 3,4 C 5,7 C
25.05.2023 08:00 7,9 C 85 % 1030 hPa 0,0 l/m 0,0 km/h (0 Bft) O-NO 5,6 C 7,9 C
25.05.2023 09:00 10,5 C 84 % 1030 hPa 0,0 l/m 0,0 km/h (0 Bft) O-NO 8,0 C 10,5 C
25.05.2023 10:00 12,4 C 81 % 1030 hPa 0,0 l/m 0,0 km/h (0 Bft) N 9,2 C 12,4 C
25.05.2023 11:00 14,2 C 74 % 1031 hPa 0,0 l/m 0,7 km/h (0 Bft) N 9,5 C 14,2 C
25.05.2023 12:00 15,9 C 67 % 1030 hPa 0,0 l/m 0,0 km/h (0 Bft) N 9,7 C 15,9 C
25.05.2023 13:00 16,9 C 62 % 1030 hPa 0,0 l/m 0,1 km/h (0 Bft) N 9,6 C 16,9 C
25.05.2023 14:00 18,4 C 59 % 1030 hPa 0,0 l/m 1,1 km/h (1 Bft) N-NW 10,2 C 18,4 C
25.05.2023 15:00 19,7 C 55 % 1030 hPa 0,0 l/m 0,0 km/h (0 Bft) O 10,3 C 19,7 C
25.05.2023 16:00 19,5 C 52 % 1029 hPa 0,0 l/m 0,1 km/h (0 Bft) O-SO 9,5 C 19,5 C
25.05.2023 17:00 19,4 C 53 % 1029 hPa 0,0 l/m 1,2 km/h (1 Bft) N 9,4 C 19,3 C
25.05.2023 18:00 18,1 C 55 % 1029 hPa 0,0 l/m 0,1 km/h (0 Bft) N-NO 8,8 C 18,1 C
25.05.2023 19:00 17,1 C 57 % 1029 hPa 0,0 l/m 0,9 km/h (0 Bft) N 8,6 C 17,1 C
25.05.2023 20:00 15,6 C 62 % 1030 hPa 0,0 l/m 0,5 km/h (0 Bft) N-NO 8,4 C 15,6 C
25.05.2023 21:00 13,8 C 68 % 1030 hPa 0,0 l/m 1,6 km/h (1 Bft) N-NO 7,9 C 13,8 C
25.05.2023 22:00 12,6 C 71 % 1030 hPa 0,0 l/m 3,8 km/h (1 Bft) N 7,4 C 12,1 C
25.05.2023 23:00 11,8 C 73 % 1030 hPa 0,0 l/m 0,4 km/h (0 Bft) N 7,1 C 11,8 C
26.05.2023 00:00 10,1 C 74 % 1031 hPa 0,0 l/m 0,0 km/h (0 Bft) N 5,7 C 10,1 C
26.05.2023 01:00 8,9 C 76 % 1031 hPa 0,0 l/m 0,0 km/h (0 Bft) N 5,0 C 8,9 C
26.05.2023 02:00 8,1 C 78 % 1030 hPa 0,0 l/m 0,0 km/h (0 Bft) N 4,5 C 8,1 C
26.05.2023 03:00 7,5 C 80 % 1030 hPa 0,0 l/m 0,0 km/h (0 Bft) N 4,2 C 7,5 C
26.05.2023 04:00 6,9 C 81 % 1031 hPa 0,0 l/m 0,0 km/h (0 Bft) N 3,9 C 6,9 C
26.05.2023 05:00 6,4 C 82 % 1030 hPa 0,0 l/m 0,0 km/h (0 Bft) N 3,6 C 6,4 C
26.05.2023 06:00 7,1 C 84 % 1031 hPa 0,0 l/m 0,0 km/h (0 Bft) N 4,6 C 7,1 C
26.05.2023 07:00 8,5 C 85 % 1031 hPa 0,0 l/m 0,0 km/h (0 Bft) N-NO 6,1 C 8,5 C
26.05.2023 08:00 10,8 C 84 % 1032 hPa 0,0 l/m 0,6 km/h (0 Bft) N-NO 8,2 C 10,8 C
26.05.2023 09:00 12,8 C 79 % 1032 hPa 0,0 l/m 3,5 km/h (1 Bft) N-NO 9,2 C 12,3 C
26.05.2023 10:00 14,4 C 74 % 1032 hPa 0,0 l/m 2,2 km/h (1 Bft) O-SO 9,8 C 13,9 C
26.05.2023 11:00 16,4 C 67 % 1032 hPa 0,0 l/m 0,0 km/h (0 Bft) N-NW 10,1 C 16,4 C
26.05.2023 12:00 17,6 C 60 % 1032 hPa 0,0 l/m 2,4 km/h (1 Bft) N 9,6 C 17,5 C
26.05.2023 13:00 18,4 C 57 % 1032 hPa 0,0 l/m 3,9 km/h (1 Bft) N-NO 9,7 C 18,0 C
26.05.2023 14:00 18,6 C 55 % 1032 hPa 0,0 l/m 6,7 km/h (2 Bft) N 9,4 C 17,7 C
26.05.2023 15:00 19,4 C 53 % 1032 hPa 0,0 l/m 1,9 km/h (1 Bft) N-NO 9,5 C 19,1 C
26.05.2023 16:00 19,9 C 50 % 1031 hPa 0,0 l/m 5,9 km/h (2 Bft) N 9,1 C 18,9 C
26.05.2023 17:00 19,4 C 48 % 1031 hPa 0,0 l/m 0,4 km/h (0 Bft) N 8,0 C 19,4 C
26.05.2023 18:00 18,5 C 49 % 1031 hPa 0,0 l/m 1,4 km/h (1 Bft) N 7,6 C 18,4 C
26.05.2023 19:00 17,3 C 51 % 1031 hPa 0,0 l/m 7,0 km/h (2 Bft) N 7,1 C 16,3 C
26.05.2023 20:00 15,8 C 53 % 1031 hPa 0,0 l/m 1,5 km/h (1 Bft) N 6,3 C 15,8 C
26.05.2023 21:00 14,2 C 55 % 1032 hPa 0,0 l/m 2,0 km/h (1 Bft) N 5,2 C 13,9 C
26.05.2023 22:00 13,1 C 56 % 1032 hPa 0,0 l/m 3,8 km/h (1 Bft) N-NO 4,6 C 12,3 C
26.05.2023 23:00 11,9 C 60 % 1032 hPa 0,0 l/m 0,0 km/h (0 Bft) N-NO 4,3 C 11,9 C
27.05.2023 00:00 11,1 C 63 % 1032 hPa 0,0 l/m 0,1 km/h (0 Bft) N 4,2 C 11,1 C
27.05.2023 01:00 9,8 C 66 % 1032 hPa 0,0 l/m 0,0 km/h (0 Bft) O-NO 3,6 C 9,8 C
27.05.2023 02:00 8,4 C 69 % 1032 hPa 0,0 l/m 0,0 km/h (0 Bft) NO 3,0 C 8,4 C
27.05.2023 03:00 7,1 C 71 % 1032 hPa 0,0 l/m 0,0 km/h (0 Bft) NO 2,2 C 7,1 C
27.05.2023 04:00 6,2 C 74 % 1032 hPa 0,0 l/m 0,0 km/h (0 Bft) NO 1,9 C 6,2 C
27.05.2023 05:00 5,4 C 76 % 1032 hPa 0,0 l/m 0,0 km/h (0 Bft) O-NO 1,6 C 5,4 C
27.05.2023 06:00 5,8 C 79 % 1032 hPa 0,0 l/m 0,0 km/h (0 Bft) O-NO 2,3 C 5,8 C
27.05.2023 07:00 6,9 C 80 % 1032 hPa 0,0 l/m 0,0 km/h (0 Bft) O-NO 3,8 C 6,9 C
27.05.2023 08:00 10,2 C 80 % 1033 hPa 0,0 l/m 0,0 km/h (0 Bft) O-NO 6,9 C 10,2 C
27.05.2023 09:00 13,2 C 73 % 1033 hPa 0,0 l/m 0,8 km/h (0 Bft) O-SO 8,3 C 13,2 C
27.05.2023 10:00 15,0 C 66 % 1032 hPa 0,0 l/m 1,0 km/h (0 Bft) O 8,6 C 15,0 C
27.05.2023 11:00 16,5 C 61 % 1032 hPa 0,0 l/m 0,0 km/h (0 Bft) N 8,9 C 16,5 C
27.05.2023 12:00 17,8 C 57 % 1031 hPa 0,0 l/m 0,1 km/h (0 Bft) N 9,1 C 17,8 C
27.05.2023 13:00 18,8 C 54 % 1030 hPa 0,0 l/m 0,7 km/h (0 Bft) N-NO 9,2 C 18,8 C
27.05.2023 14:00 19,9 C 51 % 1030 hPa 0,0 l/m 1,2 km/h (1 Bft) O-SO 9,3 C 19,8 C
27.05.2023 15:00 21,1 C 47 % 1029 hPa 0,0 l/m 0,0 km/h (0 Bft) NO 9,2 C 21,1 C
27.05.2023 16:00 21,5 C 44 % 1029 hPa 0,0 l/m 1,5 km/h (1 Bft) SO 8,5 C 21,3 C
27.05.2023 17:00 21,3 C 43 % 1028 hPa 0,0 l/m 0,4 km/h (0 Bft) O-SO 8,3 C 21,3 C
27.05.2023 18:00 19,8 C 45 % 1028 hPa 0,0 l/m 0,0 km/h (0 Bft) NO 7,6 C 19,8 C
27.05.2023 19:00 18,6 C 48 % 1027 hPa 0,0 l/m 0,0 km/h (0 Bft) O-NO 7,5 C 18,6 C
27.05.2023 20:00 17,0 C 51 % 1027 hPa 0,0 l/m 0,0 km/h (0 Bft) N-NO 6,9 C 17,0 C
27.05.2023 21:00 14,9 C 54 % 1027 hPa 0,0 l/m 0,0 km/h (0 Bft) NO 5,7 C 14,9 C
27.05.2023 22:00 12,7 C 58 % 1027 hPa 0,0 l/m 0,0 km/h (0 Bft) NO 4,7 C 12,7 C
27.05.2023 23:00 10,9 C 63 % 1027 hPa 0,0 l/m 0,0 km/h (0 Bft) NO 4,2 C 10,9 C
28.05.2023 00:00 9,9 C 67 % 1027 hPa 0,0 l/m 0,0 km/h (0 Bft) NO 4,1 C 9,9 C
28.05.2023 01:00 9,2 C 69 % 1026 hPa 0,0 l/m 0,0 km/h (0 Bft) NO 3,8 C 9,2 C
28.05.2023 02:00 8,8 C 70 % 1026 hPa 0,0 l/m 0,0 km/h (0 Bft) NO 3,6 C 8,8 C
28.05.2023 03:00 8,1 C 72 % 1026 hPa 0,0 l/m 0,0 km/h (0 Bft) NO 3,3 C 8,1 C
28.05.2023 04:00 7,3 C 73 % 1025 hPa 0,0 l/m 0,0 km/h (0 Bft) NO 2,9 C 7,3 C
28.05.2023 05:00 6,8 C 76 % 1026 hPa 0,0 l/m 0,0 km/h (0 Bft) NO 2,8 C 6,8 C
28.05.2023 06:00 6,8 C 77 % 1026 hPa 0,0 l/m 0,0 km/h (0 Bft) NO 3,1 C 6,8 C
28.05.2023 07:00 7,9 C 79 % 1026 hPa 0,0 l/m 0,0 km/h (0 Bft) NO 4,4 C 7,9 C
28.05.2023 08:00 10,1 C 79 % 1025 hPa 0,0 l/m 0,0 km/h (0 Bft) NO 6,5 C 10,1 C
28.05.2023 09:00 13,3 C 77 % 1025 hPa 0,0 l/m 0,0 km/h (0 Bft) W-NW 9,4 C 13,3 C
28.05.2023 10:00 17,2 C 62 % 1025 hPa 0,0 l/m 1,7 km/h (1 Bft) N-NO 9,7 C 16,9 C
28.05.2023 11:00 19,2 C 53 % 1025 hPa 0,0 l/m 0,0 km/h (0 Bft) N-NO 9,4 C 19,2 C
28.05.2023 12:00 20,2 C 49 % 1025 hPa 0,0 l/m 1,9 km/h (1 Bft) N 9,0 C 19,9 C
28.05.2023 13:00 21,8 C 49 % 1025 hPa 0,0 l/m 0,9 km/h (0 Bft) SO 10,4 C 21,8 C
28.05.2023 14:00 23,1 C 44 % 1024 hPa 0,0 l/m 0,0 km/h (0 Bft) O 10,1 C 23,1 C
28.05.2023 15:00 23,8 C 41 % 1024 hPa 0,0 l/m 0,0 km/h (0 Bft) O-SO 9,6 C 23,8 C
28.05.2023 16:00 24,1 C 39 % 1024 hPa 0,0 l/m 0,3 km/h (0 Bft) N-NO 9,2 C 24,1 C
28.05.2023 17:00 24,1 C 38 % 1024 hPa 0,0 l/m 3,2 km/h (1 Bft) O-NO 8,7 C 24,1 C
28.05.2023 18:00 22,3 C 39 % 1023 hPa 0,0 l/m 0,0 km/h (0 Bft) NO 7,6 C 22,3 C
28.05.2023 19:00 21,0 C 42 % 1023 hPa 0,0 l/m 0,0 km/h (0 Bft) NO 7,4 C 21,0 C
28.05.2023 20:00 19,4 C 45 % 1024 hPa 0,0 l/m 0,0 km/h (0 Bft) NO 6,9 C 19,4 C
28.05.2023 21:00 17,3 C 48 % 1024 hPa 0,0 l/m 0,0 km/h (0 Bft) N-NO 6,1 C 17,3 C
28.05.2023 22:00 15,0 C 52 % 1024 hPa 0,0 l/m 0,0 km/h (0 Bft) O-NO 5,1 C 15,0 C
28.05.2023 23:00 13,0 C 56 % 1024 hPa 0,0 l/m 0,0 km/h (0 Bft) O-NO 4,5 C 13,0 C
Min-Datum _ 25.05.23 28.05.23 22.05.23 - 28.05.23 - 25.05.23 24.05.23
_ Min-Zeit 05:22 18:02 22:02 - 23:02 - 05:02 04:42
Minimum _ 3,8 C 37 % 1017 hPa - 0,0 km/h (0 Bft) - 1,1 C 3,8 C
Max-Datum _ 22.05.23 23.05.23 27.05.23 22.05.23 26.05.23 - 22.05.23 22.05.23
_ Max-Zeit 14:22 07:02 09:02 20:52 14:22 - 12:32 16:22
Maximum _ 28,5 C 91 % 1033 hPa 1,6 l/m 14,8 km/h
N (3 Bft)
- 17,4 C 28,4 C
Durchschnitt _ 14,2 C 68 % 1026 hPa #2,6 l/m 0,6 km/h (0 Bft) N 8,0 C 14,1 C